This is the latest recevied weather packets stored in our database for station/object KD0RIH. If no packets are shown the sender has not sent any weather packets the latest 10 day(s).
| Time | Temp. | Humidity | Pressure | Rain* | Wind** | Luminosity | Snow |
|---|---|---|---|---|---|---|---|
| 1777306965 | 20° C | 78% | 1000.5 hPa | 0 mm | - | 786 W/m² | - |
| 1777306663 | 19.44° C | 82% | 1000.4 hPa | 0 mm | - | 751 W/m² | - |
| 1777306360 | 19.44° C | 81% | 1000.6 hPa | 0 mm | - | 951 W/m² | - |
| 1777306053 | 18.89° C | 83% | 1000.5 hPa | 0 mm | - | 768 W/m² | - |
| 1777305751 | 18.33° C | 84% | 1000.1 hPa | 0 mm | - | 863 W/m² | - |
| 1777305447 | 18.33° C | 86% | 1000.4 hPa | 0 mm | - | 612 W/m² | - |
| 1777305146 | 18.33° C | 85% | 1000.2 hPa | 0 mm | - | 784 W/m² | - |
| 1777304842 | 17.78° C | 88% | 1000.1 hPa | 0 mm | - | 451 W/m² | - |
| 1777304539 | 17.78° C | 88% | 1000.2 hPa | 0 mm | - | 616 W/m² | - |
| 1777304236 | 17.22° C | 89% | 1000 hPa | 0 mm | - | 508 W/m² | - |
| 1777303933 | 17.22° C | 90% | 1000.1 hPa | 0 mm | - | 439 W/m² | - |
| 1777303630 | 17.22° C | 90% | 1000.1 hPa | 0 mm | - | 321 W/m² | - |
| 1777303328 | 17.22° C | 91% | 1000.3 hPa | 0 mm | - | 321 W/m² | - |
| 1777303024 | 17.22° C | 92% | 1000.3 hPa | 0 mm | - | 378 W/m² | - |
| 1777302722 | 17.22° C | 92% | 1000.3 hPa | 0 mm | - | 337 W/m² | - |
| 1777302420 | 17.22° C | 93% | 1000.5 hPa | 0 mm | - | 273 W/m² | - |
| 1777302118 | 16.67° C | 94% | 1000.4 hPa | 0 mm | - | 256 W/m² | - |
| 1777301815 | 16.67° C | 93% | 1000.4 hPa | 0 mm | - | 241 W/m² | - |
| 1777301513 | 16.67° C | 94% | 1000.3 hPa | 0 mm | - | 199 W/m² | - |
| 1777301209 | 16.67° C | 94% | 1000 hPa | 0 mm | - | 190 W/m² | - |
| 1777300906 | 16.67° C | 95% | 1000.3 hPa | 0 mm | - | 165 W/m² | - |
| 1777300604 | 16.67° C | 95% | 1000.5 hPa | 0 mm | - | 162 W/m² | - |
| 1777300301 | 16.67° C | 95% | 1000.8 hPa | 0 mm | - | 150 W/m² | - |
| 1777299998 | 16.67° C | 95% | 1000.6 hPa | 0 mm | - | 138 W/m² | - |
| 1777299694 | 16.67° C | 95% | 1000.4 hPa | 0 mm | - | 128 W/m² | - |
* Rain latest hour (hover to see other rain measurements)
** Current wind speed in m/s (hover to see current wind gust speed)